Terminal Aerodrome Forecast
Issued by NWS

Home | Current Version | Previous Version | Text Only | Print | Product List | Glossary On
Versions: 1 2 3 4 5 6 7 8 9 10 11 12 13 14 15
000
FTUS43 KGRR 172300
TAFBTL
TAF
KBTL 172340Z 1800/1824 23012KT P6SM SCT140 BKN250
     FM180200 26006KT P6SM SCT035 OVC120
     FM180800 32005KT 4SM -RA BR OVC025
     FM181500 31007KT P6SM OVC050
     FM181800 30010KT P6SM BKN250=

USA.gov is the U.S. government's official web portal to all federal, state and local government web resources and services.